createdAt,value
2019-05-11T00:01:22.840Z,99512.19
2019-05-11T00:04:25.751Z,99505.49
2019-05-11T00:07:28.672Z,99504.87
2019-05-11T00:10:31.568Z,99510.17
2019-05-11T00:13:34.489Z,99506.20
2019-05-11T00:16:37.415Z,99505.66
2019-05-11T00:19:40.707Z,99507.14
2019-05-11T00:22:43.644Z,99506.09
2019-05-11T00:25:46.547Z,99501.19
2019-05-11T00:28:49.477Z,99497.21
2019-05-11T00:31:53.236Z,99500.52
2019-05-11T00:34:56.160Z,99501.76
2019-05-11T00:37:59.352Z,99497.67
2019-05-11T00:41:02.256Z,99495.59
2019-05-11T00:44:05.177Z,99486.12
2019-05-11T00:47:08.176Z,99483.14
2019-05-11T00:50:11.307Z,99477.81
2019-05-11T00:53:14.232Z,99483.68
2019-05-11T00:56:18.195Z,99482.31
2019-05-11T00:59:22.181Z,99484.59
2019-05-11T01:02:25.322Z,99476.77
2019-05-11T01:05:28.250Z,99472.42
2019-05-11T01:08:31.150Z,99474.00
2019-05-11T01:11:34.074Z,99471.19
2019-05-11T01:14:36.993Z,99469.78
2019-05-11T01:17:39.897Z,99469.98
2019-05-11T01:20:43.504Z,99467.55
2019-05-11T01:23:46.414Z,99463.12
2019-05-11T01:26:49.331Z,99465.72
2019-05-11T01:29:52.221Z,99461.13
2019-05-11T01:32:55.158Z,99464.02
2019-05-11T01:35:58.097Z,99459.48
2019-05-11T01:39:00.999Z,99466.17
2019-05-11T01:42:04.449Z,99470.77
2019-05-11T01:45:07.887Z,99469.98
2019-05-11T01:48:10.810Z,99462.95
2019-05-11T01:51:13.730Z,99469.20
2019-05-11T01:54:16.634Z,99470.40
2019-05-11T01:57:19.552Z,99470.44
2019-05-11T02:00:22.814Z,99461.79
2019-05-11T02:03:25.748Z,99458.69
2019-05-11T02:06:28.662Z,99448.97
2019-05-11T02:09:31.557Z,99447.44
2019-05-11T02:12:34.488Z,99448.55
2019-05-11T02:15:37.402Z,99441.06
2019-05-11T02:18:40.309Z,99445.61
2019-05-11T02:21:44.352Z,99436.59
2019-05-11T02:24:47.272Z,99436.72
2019-05-11T02:27:50.175Z,99436.27
2019-05-11T02:30:53.097Z,99426.30
2019-05-11T02:33:56.013Z,99422.08
2019-05-11T02:36:58.926Z,99419.84
2019-05-11T02:40:01.891Z,99410.25
2019-05-11T02:43:05.075Z,99417.95
2019-05-11T02:46:08.457Z,99416.29
2019-05-11T02:49:11.307Z,99420.76
2019-05-11T02:52:14.910Z,99416.38
2019-05-11T02:55:17.817Z,99428.24
2019-05-11T02:58:21.029Z,99432.67
2019-05-11T03:01:23.936Z,99441.23
2019-05-11T03:04:26.886Z,99444.29
2019-05-11T03:07:29.784Z,99448.88
2019-05-11T03:10:33.050Z,99454.07
2019-05-11T03:13:37.058Z,99449.63
2019-05-11T03:16:39.958Z,99448.38
2019-05-11T03:19:42.905Z,99452.06
2019-05-11T03:22:46.274Z,99456.45
2019-05-11T03:25:49.196Z,99453.55
2019-05-11T03:28:52.477Z,99465.20
2019-05-11T03:31:55.408Z,99466.49
2019-05-11T03:34:58.347Z,99467.13
2019-05-11T03:38:01.248Z,99470.09
2019-05-11T03:41:04.491Z,99473.11
2019-05-11T03:44:07.409Z,99477.08
2019-05-11T03:47:10.303Z,99481.50
2019-05-11T03:50:13.526Z,99485.10
2019-05-11T03:53:16.459Z,99485.63
2019-05-11T03:56:19.450Z,99470.41
2019-05-11T03:59:22.391Z,99472.04
2019-05-11T04:02:25.370Z,99481.13
2019-05-11T04:05:28.306Z,99483.13
2019-05-11T04:08:31.203Z,99482.20
2019-05-11T04:11:34.128Z,99472.63
2019-05-11T04:14:37.050Z,99477.16
2019-05-11T04:17:40.034Z,99484.84
2019-05-11T04:20:42.986Z,99484.50
2019-05-11T04:23:46.258Z,99480.27
2019-05-11T04:26:49.441Z,99477.88
2019-05-11T04:29:52.426Z,99475.89
2019-05-11T04:32:55.343Z,99471.41
2019-05-11T04:35:58.262Z,99478.70
2019-05-11T04:39:01.188Z,99475.64
2019-05-11T04:42:06.516Z,99481.68
2019-05-11T04:45:09.924Z,99473.24
2019-05-11T04:48:12.844Z,99474.16
2019-05-11T04:51:15.746Z,99469.27
2019-05-11T04:54:18.661Z,99470.59
2019-05-11T04:57:21.585Z,99471.88
2019-05-11T05:00:24.584Z,99470.97
2019-05-11T05:03:40.214Z,99473.29
2019-05-11T05:06:32.346Z,99475.44
2019-05-11T05:09:35.982Z,99478.54
2019-05-11T05:12:40.086Z,99476.30
2019-05-11T05:15:43.313Z,99475.55
2019-05-11T05:18:46.587Z,99475.39
2019-05-11T05:21:49.509Z,99471.10
2019-05-11T05:24:52.448Z,99476.89
2019-05-11T05:27:55.353Z,99477.84
2019-05-11T05:30:58.276Z,99477.84
2019-05-11T05:34:01.585Z,99473.80
2019-05-11T05:37:04.965Z,99486.58
2019-05-11T05:40:09.685Z,99484.34
2019-05-11T05:43:25.545Z,99482.11
2019-05-11T05:46:18.539Z,99478.80
2019-05-11T05:49:22.546Z,99482.31
2019-05-11T05:52:25.579Z,99478.18
2019-05-11T05:55:28.489Z,99484.80
2019-05-11T05:58:31.480Z,99496.09
2019-05-11T06:01:34.470Z,99489.47
2019-05-11T06:04:37.366Z,99496.84
2019-05-11T06:07:40.314Z,99498.37
2019-05-11T06:10:43.249Z,99495.35
2019-05-11T06:13:46.175Z,99502.76
2019-05-11T06:16:49.073Z,99504.99
2019-05-11T06:19:52.016Z,99505.36
2019-05-11T06:22:54.924Z,99500.90
2019-05-11T06:25:58.947Z,99499.12
2019-05-11T06:29:01.872Z,99495.14
2019-05-11T06:32:04.772Z,99497.58
2019-05-11T06:35:08.422Z,99493.98
2019-05-11T06:38:11.365Z,99500.77
2019-05-11T06:41:14.400Z,99497.73
2019-05-11T06:44:17.646Z,99502.50
2019-05-11T06:47:20.556Z,99501.63
2019-05-11T06:50:23.480Z,99498.52
2019-05-11T06:53:26.403Z,99502.24
2019-05-11T06:56:29.326Z,99504.07
2019-05-11T06:59:33.070Z,99503.98
2019-05-11T07:02:36.306Z,99505.37
2019-05-11T07:05:39.224Z,99511.23
2019-05-11T07:08:42.144Z,99512.77
2019-05-11T07:11:45.073Z,99513.02
2019-05-11T07:14:47.972Z,99503.95
2019-05-11T07:17:50.883Z,99509.73
2019-05-11T07:20:54.901Z,99510.73
2019-05-11T07:23:58.828Z,99513.83
2019-05-11T07:27:02.752Z,99511.76
2019-05-11T07:30:06.279Z,99520.29
2019-05-11T07:33:09.337Z,99518.50
2019-05-11T07:36:12.550Z,99524.72
2019-05-11T07:39:15.499Z,99521.84
2019-05-11T07:42:18.400Z,99522.48
2019-05-11T07:45:21.325Z,99529.61
2019-05-11T07:48:24.321Z,99534.12
2019-05-11T07:51:28.779Z,99528.92
2019-05-11T07:54:31.881Z,99529.33
2019-05-11T07:57:34.821Z,99538.56
2019-05-11T08:00:40.018Z,99540.84
2019-05-11T08:03:42.521Z,99539.67
2019-05-11T08:06:47.895Z,99545.91
2019-05-11T08:09:51.013Z,99544.67
2019-05-11T08:12:53.928Z,99542.39
2019-05-11T08:15:57.821Z,99534.97
2019-05-11T08:19:00.973Z,99537.05
2019-05-11T08:22:04.017Z,99536.58
2019-05-11T08:25:08.994Z,99542.95
2019-05-11T08:28:12.783Z,99549.96
2019-05-11T08:31:15.675Z,99555.64
2019-05-11T08:34:18.594Z,99557.52
2019-05-11T08:37:21.517Z,99562.22
2019-05-11T08:40:24.727Z,99565.28
2019-05-11T08:43:28.525Z,99573.98
2019-05-11T08:46:31.683Z,99577.41
2019-05-11T08:49:34.594Z,99574.35
2019-05-11T08:52:38.665Z,99586.20
2019-05-11T08:55:41.809Z,99587.08
2019-05-11T08:58:44.743Z,99592.75
2019-05-11T09:01:48.411Z,99598.88
2019-05-11T09:04:52.008Z,99605.96
2019-05-11T09:07:54.926Z,99613.87
2019-05-11T09:10:58.320Z,99616.28
2019-05-11T09:14:01.380Z,99619.19
2019-05-11T09:17:07.669Z,99618.98
2019-05-11T09:20:10.740Z,99613.50
2019-05-11T09:23:13.637Z,99621.38
2019-05-11T09:26:18.127Z,99634.30
2019-05-11T09:29:21.384Z,99639.43
2019-05-11T09:32:24.759Z,99646.22
2019-05-11T09:35:29.218Z,99649.81
2019-05-11T09:38:32.257Z,99651.93
2019-05-11T09:41:38.097Z,99663.40
2019-05-11T09:44:40.728Z,99666.84
2019-05-11T09:47:43.654Z,99665.52
2019-05-11T09:50:48.063Z,99679.59
2019-05-11T09:53:51.316Z,99682.59
2019-05-11T09:56:54.217Z,99686.56
2019-05-11T09:59:58.272Z,99689.33
2019-05-11T10:03:01.349Z,99687.38
2019-05-11T10:06:04.627Z,99689.92
2019-05-11T10:09:08.336Z,99691.04
2019-05-11T10:12:11.596Z,99694.42
2019-05-11T10:15:16.026Z,99694.72
2019-05-11T10:18:18.955Z,99702.47
2019-05-11T10:21:21.978Z,99702.14
2019-05-11T10:24:25.182Z,99702.73
2019-05-11T10:27:28.192Z,99710.56
2019-05-11T10:30:31.154Z,99706.50
2019-05-11T10:33:34.054Z,99710.15
2019-05-11T10:36:38.473Z,99711.19
2019-05-11T10:39:41.677Z,99716.03
2019-05-11T10:42:44.656Z,99724.38
2019-05-11T10:45:48.400Z,99728.05
2019-05-11T10:48:51.952Z,99733.66
2019-05-11T10:51:54.855Z,99741.20
2019-05-11T10:54:58.652Z,99737.06
2019-05-11T10:58:01.800Z,99749.66
2019-05-11T11:01:04.736Z,99759.52
2019-05-11T11:04:08.030Z,99753.92
2019-05-11T11:07:11.156Z,99759.98
2019-05-11T11:10:14.168Z,99755.79
2019-05-11T11:13:18.773Z,99764.74
2019-05-11T11:16:35.656Z,99760.93
2019-05-11T11:19:29.030Z,99767.72
2019-05-11T11:22:39.822Z,99772.58
2019-05-11T11:25:37.593Z,99778.68
2019-05-11T11:28:40.682Z,99781.75
2019-05-11T11:31:43.609Z,99791.95
2019-05-11T11:34:48.505Z,99796.34
2019-05-11T11:37:51.655Z,99802.61
2019-05-11T11:40:54.861Z,99802.41
2019-05-11T11:43:58.663Z,99803.06
2019-05-11T11:47:01.737Z,99809.61
2019-05-11T11:50:05.656Z,99818.34
2019-05-11T11:53:08.593Z,99827.05
2019-05-11T11:56:11.563Z,99821.80
2019-05-11T11:59:14.503Z,99832.47
2019-05-11T12:02:19.051Z,99831.62
2019-05-11T12:05:22.256Z,99825.11
2019-05-11T12:08:28.060Z,99842.81
2019-05-11T12:11:30.661Z,99845.70
2019-05-11T12:14:33.633Z,99859.80
2019-05-11T12:17:37.674Z,99864.66
2019-05-11T12:20:40.735Z,99863.14
2019-05-11T12:23:43.632Z,99869.16
2019-05-11T12:26:48.107Z,99881.66
2019-05-11T12:29:51.212Z,99881.20
2019-05-11T12:32:54.151Z,99889.92
2019-05-11T12:35:58.670Z,99893.11
2019-05-11T12:39:08.188Z,99898.30
2019-05-11T12:42:10.826Z,99902.59
2019-05-11T12:45:14.121Z,99906.52
2019-05-11T12:48:18.121Z,99910.70
2019-05-11T12:51:21.255Z,99913.20
2019-05-11T12:54:24.159Z,99918.02
2019-05-11T12:57:28.181Z,99925.31
2019-05-11T13:00:31.560Z,99932.98
2019-05-11T13:03:34.655Z,99934.36
2019-05-11T13:06:38.504Z,99948.85
2019-05-11T13:09:41.694Z,99953.69
2019-05-11T13:12:44.915Z,99962.69
2019-05-11T13:15:48.091Z,99965.64
2019-05-11T13:18:51.087Z,99966.43
2019-05-11T13:21:54.043Z,99986.88
2019-05-11T13:24:58.838Z,99986.42
2019-05-11T13:28:01.757Z,99994.59
2019-05-11T13:31:04.696Z,99995.95
2019-05-11T13:34:08.494Z,99999.48
2019-05-11T13:37:11.559Z,100014.16
2019-05-11T13:40:14.514Z,100015.75
2019-05-11T13:43:18.797Z,100017.88
2019-05-11T13:46:22.076Z,100020.87
2019-05-11T13:49:25.763Z,100029.36
2019-05-11T13:52:29.027Z,100030.41
2019-05-11T13:55:31.925Z,100037.92
2019-05-11T13:58:35.201Z,100039.06
2019-05-11T14:01:38.201Z,100046.94
2019-05-11T14:04:41.152Z,100048.14
2019-05-11T14:07:44.052Z,100051.10
2019-05-11T14:10:48.865Z,100063.56
2019-05-11T14:13:51.807Z,100067.67
2019-05-11T14:16:54.768Z,100069.90
2019-05-11T14:19:58.430Z,100076.66
2019-05-11T14:23:01.593Z,100080.13
2019-05-11T14:26:04.506Z,100082.61
2019-05-11T14:29:08.521Z,100089.64
2019-05-11T14:32:12.264Z,100100.16
2019-05-11T14:35:15.294Z,100110.16
2019-05-11T14:38:18.877Z,100107.41
2019-05-11T14:41:22.046Z,100119.47
2019-05-11T14:44:25.031Z,100119.16
2019-05-11T14:47:28.372Z,100129.48
2019-05-11T14:50:31.392Z,100134.14
2019-05-11T14:53:34.316Z,100146.00
2019-05-11T14:56:37.985Z,100144.01
2019-05-11T14:59:41.366Z,100138.39
2019-05-11T15:02:49.202Z,100148.42
2019-05-11T15:05:52.133Z,100144.94
2019-05-11T15:08:55.349Z,100151.59
2019-05-11T15:11:58.295Z,100160.33
2019-05-11T15:15:01.201Z,100160.23
2019-05-11T15:18:04.238Z,100167.00
2019-05-11T15:21:08.295Z,100171.55
2019-05-11T15:24:11.371Z,100175.86
2019-05-11T15:27:14.943Z,100180.39
2019-05-11T15:30:18.571Z,100191.61
2019-05-11T15:33:21.515Z,100196.60
2019-05-11T15:36:24.416Z,100195.67
2019-05-11T15:39:28.694Z,100206.75
2019-05-11T15:42:31.925Z,100201.72
2019-05-11T15:45:35.226Z,100215.62
2019-05-11T15:48:53.472Z,100211.83
2019-05-11T15:51:43.345Z,100220.03
2019-05-11T15:54:46.296Z,100223.07
2019-05-11T15:57:49.201Z,100218.01
2019-05-11T16:00:52.144Z,100213.30
2019-05-11T16:03:55.200Z,100219.70
2019-05-11T16:07:00.167Z,100223.20
2019-05-11T16:10:03.836Z,100226.27
2019-05-11T16:13:08.946Z,100242.01
2019-05-11T16:16:11.551Z,100237.02
2019-05-11T16:19:15.323Z,100244.13
2019-05-11T16:22:21.048Z,100248.31
2019-05-11T16:25:23.331Z,100265.00
2019-05-11T16:28:30.169Z,100265.83
2019-05-11T16:31:31.056Z,100273.38
2019-05-11T16:34:33.952Z,100274.69
2019-05-11T16:37:38.018Z,100281.78
2019-05-11T16:40:41.270Z,100280.20
2019-05-11T16:43:44.164Z,100283.05
2019-05-11T16:46:50.465Z,100288.36
2019-05-11T16:49:51.924Z,100297.00
2019-05-11T16:52:54.837Z,100294.92
2019-05-11T16:55:57.863Z,100300.28
2019-05-11T16:59:00.748Z,100293.42
2019-05-11T17:02:03.791Z,100300.88
2019-05-11T17:05:07.674Z,100308.10
2019-05-11T17:08:11.272Z,100305.20
2019-05-11T17:11:14.191Z,100315.17
2019-05-11T17:14:18.762Z,100329.34
2019-05-11T17:17:22.686Z,100330.38
2019-05-11T17:20:27.683Z,100333.74
2019-05-11T17:23:31.361Z,100345.25
2019-05-11T17:26:34.390Z,100344.97
2019-05-11T17:29:38.086Z,100345.95
2019-05-11T17:32:41.114Z,100352.13
2019-05-11T17:35:44.036Z,100367.80
2019-05-11T17:38:47.923Z,100372.72
2019-05-11T17:41:51.069Z,100380.23
2019-05-11T17:44:53.991Z,100383.97
2019-05-11T17:47:58.329Z,100382.54
2019-05-11T17:51:01.321Z,100388.86
2019-05-11T17:54:04.252Z,100402.95
2019-05-11T17:57:07.324Z,100401.20
2019-05-11T18:00:10.807Z,100410.41
2019-05-11T18:03:13.832Z,100415.23
2019-05-11T18:06:18.385Z,100418.47
2019-05-11T18:09:21.793Z,100427.70
2019-05-11T18:12:24.693Z,100428.97
2019-05-11T18:15:27.952Z,100435.68
2019-05-11T18:18:30.850Z,100444.59
2019-05-11T18:21:33.771Z,100452.17
2019-05-11T18:24:38.314Z,100462.66
2019-05-11T18:27:41.394Z,100463.92
2019-05-11T18:30:44.309Z,100469.11
2019-05-11T18:33:48.738Z,100469.75
2019-05-11T18:36:51.847Z,100472.34
2019-05-11T18:39:55.147Z,100479.70
2019-05-11T18:42:58.056Z,100495.92
2019-05-11T18:46:00.972Z,100503.41
2019-05-11T18:49:03.936Z,100505.52
2019-05-11T18:52:08.225Z,100516.77
2019-05-11T18:55:11.937Z,100523.81
2019-05-11T18:58:14.860Z,100526.83
2019-05-11T19:01:17.988Z,100537.12
2019-05-11T19:04:21.214Z,100550.83
2019-05-11T19:07:24.250Z,100561.14
2019-05-11T19:10:27.777Z,100558.43
2019-05-11T19:13:30.890Z,100567.55
2019-05-11T19:16:34.079Z,100563.25
2019-05-11T19:19:37.945Z,100578.03
2019-05-11T19:22:41.065Z,100585.52
2019-05-11T19:25:43.987Z,100590.39
2019-05-11T19:28:46.907Z,100598.80
2019-05-11T19:31:49.819Z,100603.84
2019-05-11T19:34:52.734Z,100616.12
2019-05-11T19:37:57.766Z,100628.63
2019-05-11T19:41:00.476Z,100633.09
2019-05-11T19:44:05.416Z,100645.81
2019-05-11T19:47:08.883Z,100658.44
2019-05-11T19:50:12.051Z,100665.38
2019-05-11T19:53:15.289Z,100680.75
2019-05-11T19:56:18.415Z,100684.05
2019-05-11T19:59:21.413Z,100693.34
2019-05-11T20:02:24.347Z,100704.83
2019-05-11T20:05:28.757Z,100709.86
2019-05-11T20:08:31.976Z,100718.78
2019-05-11T20:11:34.918Z,100728.09
2019-05-11T20:14:37.975Z,100739.14
2019-05-11T20:17:40.957Z,100742.00
2019-05-11T20:20:43.882Z,100747.11
2019-05-11T20:23:48.509Z,100760.15
2019-05-11T20:26:51.607Z,100763.41
2019-05-11T20:29:54.508Z,100769.44
2019-05-11T20:32:57.427Z,100775.36
2019-05-11T20:36:00.349Z,100782.36
2019-05-11T20:39:06.727Z,100786.83
2019-05-11T20:42:11.140Z,100785.42
2019-05-11T20:45:14.248Z,100794.38
2019-05-11T20:48:18.487Z,100800.77
2019-05-11T20:51:33.279Z,100798.70
2019-05-11T20:54:28.158Z,100813.75
2019-05-11T20:57:31.262Z,100829.99
2019-05-11T21:00:34.281Z,100834.11
2019-05-11T21:03:38.116Z,100838.08
2019-05-11T21:06:41.315Z,100840.16
2019-05-11T21:09:44.249Z,100843.91
2019-05-11T21:12:47.202Z,100844.78
2019-05-11T21:15:50.078Z,100849.67
2019-05-11T21:18:52.993Z,100850.73
2019-05-11T21:21:58.734Z,100864.30
2019-05-11T21:25:01.009Z,100868.63
2019-05-11T21:28:03.944Z,100877.72
2019-05-11T21:31:07.999Z,100887.36
2019-05-11T21:34:11.268Z,100886.94
2019-05-11T21:37:14.164Z,100890.22
2019-05-11T21:40:17.097Z,100891.28
2019-05-11T21:43:19.998Z,100897.59
2019-05-11T21:46:22.917Z,100903.78
2019-05-11T21:49:25.840Z,100906.97
2019-05-11T21:52:28.860Z,100918.82
2019-05-11T21:55:31.743Z,100925.52
2019-05-11T21:58:35.017Z,100930.47
2019-05-11T22:01:38.560Z,100929.30
2019-05-11T22:04:41.921Z,100942.33
2019-05-11T22:07:44.831Z,100938.95
2019-05-11T22:10:47.865Z,100937.63
2019-05-11T22:13:50.866Z,100940.71
2019-05-11T22:16:53.783Z,100945.27
2019-05-11T22:19:58.534Z,100955.28
2019-05-11T22:23:01.508Z,100961.10
2019-05-11T22:26:04.454Z,100969.92
2019-05-11T22:29:07.868Z,100976.63
2019-05-11T22:32:10.976Z,100973.53
2019-05-11T22:35:13.903Z,100975.41
2019-05-11T22:38:16.797Z,100970.48
2019-05-11T22:41:20.112Z,100971.41
2019-05-11T22:44:23.311Z,100974.42
2019-05-11T22:47:28.234Z,100980.77
2019-05-11T22:50:31.105Z,100990.47
2019-05-11T22:53:46.454Z,100989.15
2019-05-11T22:56:38.837Z,100989.63
2019-05-11T22:59:43.360Z,100991.35
2019-05-11T23:02:48.395Z,100997.52
2019-05-11T23:05:51.125Z,100999.75
2019-05-11T23:08:54.299Z,101004.13
2019-05-11T23:12:00.753Z,101014.73
2019-05-11T23:15:12.257Z,101017.93
2019-05-11T23:18:15.166Z,101020.96
2019-05-11T23:21:18.079Z,101033.33
2019-05-11T23:24:20.997Z,101027.16
2019-05-11T23:27:23.917Z,101043.48
2019-05-11T23:30:28.080Z,101054.91
2019-05-11T23:33:31.140Z,101058.92
2019-05-11T23:36:34.032Z,101058.92
2019-05-11T23:39:38.697Z,101064.69
2019-05-11T23:42:41.908Z,101066.47
2019-05-11T23:45:44.805Z,101067.77
2019-05-11T23:48:48.637Z,101068.63
2019-05-11T23:51:51.752Z,101081.89
2019-05-11T23:54:54.665Z,101089.38
2019-05-11T23:57:57.760Z,101087.19
